• Join FlightAware (Why Join?)
  • Login
  • US Flag 
12:19AM EDT


 

Airport Tracker/Info


-or-


 

Live Flight TrackerFlight Track Log ✈ SKW6528 ✈ 25-Apr-2013 ✈ KBFL - KDEN

Flight Track Log - Related Links

Times and Time Zones

All times are in EDT time to prevent confusion due to time zone crossing. See the SKW6528 flight status page for this flight to view local times or setup timezone preferences in your user account.

Time Position Orientation Groundspeed Altitude Reporting Facility
EDT Latitude Longitude Course Direction KTS MPH feet Rate Location/Type
09:18AM 35.4594 -119.1531 132° Southeast 224 258 33,000  Level Los Angeles Center
09:19AM 35.4006 -119.1317 164° South 281 323 5,700 -12,360 Descending Los Angeles Center
09:20AM 35.0784 -118.6386 136° Southeast  Level FlightAware Approximate
09:20AM 35.3489 -119.0567 130° Southeast 288 331 8,100  Level Los Angeles Center
09:21AM 34.9925 -118.5304 129° Southeast  Level FlightAware Approximate
09:21AM 35.3064 -118.9978 131° Southeast 288 331 10,100  Level Los Angeles Center
09:22AM 34.9078 -118.4215 132° Southeast  Level FlightAware Approximate
09:22AM 35.2408 -118.9036 130° Southeast 299 344 12,200  Level Los Angeles Center
09:23AM 34.8244 -118.3103 132° Southeast  Level FlightAware Approximate
09:23AM 35.1786 -118.8200 132° Southeast 325 374 14,200  Level Los Angeles Center
09:24AM 35.1167 -118.7339 131° Southeast 336 387 16,000 1,740 Climbing Los Angeles Center
09:25AM 35.0383 -118.6267 132° Southeast 351 404 17,800 1,500 Climbing Los Angeles Center
09:26AM 34.9714 -118.5328 131° Southeast 364 419 19,100 1,260 Climbing Los Angeles Center
09:27AM 34.9117 -118.4514 132° Southeast 374 430 20,400 1,140 Climbing Los Angeles Center
09:28AM 34.8422 -118.3517 130° Southeast 386 444 21,500 1,080 Climbing Los Angeles Center
09:29AM 34.8408 -118.2036 91° East 368 423 22,600 960 Climbing Los Angeles Center
09:30AM 34.8525 -118.0775 84° East 376 433 23,500 780 Climbing Los Angeles Center
09:31AM 34.8633 -117.9469 84° East 387 445 24,200 840 Climbing Los Angeles Center
09:32AM 34.8736 -117.8136 85° East 396 456 25,300 780 Climbing Los Angeles Center
09:33AM 34.8844 -117.6806 84° East 399 459 25,800 540 Climbing Los Angeles Center
09:34AM 34.9139 -117.5508 74° East 406 467 26,500 720 Climbing Los Angeles Center
09:35AM 34.9497 -117.3953 74° East 406 467 27,300 720 Climbing Los Angeles Center
09:36AM 34.9822 -117.2656 73° East 404 465 28,000 480 Climbing Los Angeles Center
09:37AM 35.0353 -117.1461 61° Northeast 402 463 28,400 480 Climbing Los Angeles Center
09:38AM 35.0978 -117.0314 56° Northeast 404 465 29,000 540 Climbing Los Angeles Center
09:39AM 35.1606 -116.9175 56° Northeast 408 470 29,600 480 Climbing Los Angeles Center
09:40AM 35.2219 -116.8036 57° Northeast 405 466 30,100 420 Climbing Los Angeles Center
09:41AM 35.2839 -116.6878 57° Northeast 407 468 30,600 480 Climbing Los Angeles Center
09:42AM 35.3586 -116.5492 57° Northeast 408 470 31,300 600 Climbing Los Angeles Center
09:43AM 35.4322 -116.4111 57° Northeast 405 466 31,900 480 Climbing Los Angeles Center
09:44AM 35.4931 -116.2939 57° Northeast 408 470 32,400 480 Climbing Los Angeles Center
09:45AM 35.5547 -116.1786 57° Northeast 406 467 32,900 240 Climbing Los Angeles Center
09:47AM 35.6150 -116.0622 57° Northeast 406 467 33,000  Climbing Los Angeles Center
09:48AM 35.6778 -115.9431 57° Northeast 415 478 33,000  Level Los Angeles Center
09:49AM 35.7431 -115.8161 58° Northeast 422 486 33,000  Level Los Angeles Center
09:50AM 35.8078 -115.6914 57° Northeast 432 497 33,000  Level Los Angeles Center
09:51AM 35.8736 -115.5644 57° Northeast 440 506 33,000  Level Los Angeles Center
09:52AM 35.9525 -115.4133 57° Northeast 441 507 33,000  Level Los Angeles Center
09:53AM 36.0156 -115.2894 58° Northeast 434 499 33,000  Level Los Angeles Center
09:54AM 36.0778 -115.1628 59° Northeast 435 501 33,000  Level Los Angeles Center
09:55AM 36.1269 -115.0278 66° East 434 499 33,000  Level Los Angeles Center
09:56AM 36.1747 -114.8928 66° East 431 496 33,000  Level Los Angeles Center
09:57AM 36.2228 -114.7561 66° East 434 499 33,000  Level Los Angeles Center
09:58AM 36.2808 -114.5897 67° East 438 504 33,000  Level Los Angeles Center
09:59AM 36.3292 -114.4489 67° East 443 510 33,000  Level Los Angeles Center
10:00AM 36.3800 -114.3069 66° East 449 517 33,000  Level Los Angeles Center
10:01AM 36.4281 -114.1650 67° East 447 514 33,000  Level Los Angeles Center
10:02AM 36.4778 -114.0228 66° East 449 517 33,000  Level Los Angeles Center
10:03AM 36.5297 -113.8689 67° East 446 513 33,000  Level Los Angeles Center
10:04AM 36.5769 -113.7292 67° East 442 509 33,000  Level Los Angeles Center
10:05AM 36.6247 -113.5889 67° East 442 509 33,000  Level Los Angeles Center
10:06AM 36.6714 -113.4475 68° East 443 510 33,000  Level Los Angeles Center
10:07AM 36.7200 -113.3067 67° East 444 511 33,000  Level Los Angeles Center
10:08AM 36.7672 -113.1661 67° East 443 510 33,000  Level Los Angeles Center
10:09AM 36.8217 -112.9967 68° East 442 509 33,000  Level Los Angeles Center
10:10AM 36.8692 -112.8561 67° East 442 509 33,000  Level Los Angeles Center
10:11AM 36.9164 -112.7136 67° East 446 513 33,000  Level Los Angeles Center
10:12AM 36.9625 -112.5697 68° East 448 516 33,000  Level Los Angeles Center
10:13AM 37.0089 -112.4269 68° East 448 516 33,000  Level Los Angeles Center
10:14AM 37.0656 -112.2531 68° East 452 520 33,000  Level Los Angeles Center
10:16AM 37.1419 -112.0194 68° East 455 524 33,000  Level Denver Center
10:16AM 37.1606 -111.9617 68° East 455 524 33,000  Level Los Angeles Center
10:17AM 37.1889 -111.8728 68° East 456 525 33,000  Level Denver Center
10:18AM 37.2356 -111.7258 68° East 456 525 33,000  Level Denver Center
10:19AM 37.2819 -111.5772 69° East 460 529 33,000  Level Denver Center
10:20AM 37.3389 -111.3964 68° East 467 537 33,000  Level Denver Center
10:21AM 37.3861 -111.2464 68° East 465 535 33,000  Level Denver Center
10:22AM 37.4333 -111.0947 69° East 467 537 33,000  Level Denver Center
10:23AM 37.4706 -110.9719 69° East 471 542 33,000  Level Denver Center
10:24AM 37.5283 -110.7883 68° East 474 545 33,000  Level Denver Center
10:25AM 37.5744 -110.6344 69° East 472 543 33,000  Level Denver Center
10:26AM 37.6308 -110.4492 69° East 475 547 33,000  Level Denver Center
10:27AM 37.6683 -110.3247 69° East 475 547 33,000  Level Denver Center
10:28AM 37.7208 -110.1506 69° East 475 547 33,000  Level Denver Center
10:29AM 37.7733 -109.9744 69° East 478 550 33,000  Level Denver Center
10:30AM 37.8178 -109.8264 69° East 472 543 33,000  Level Denver Center
10:31AM 37.8692 -109.6511 70° East 475 547 33,000  Level Denver Center
10:32AM 37.9133 -109.5006 70° East 474 545 33,000  Level Denver Center
10:33AM 37.9647 -109.3247 70° East 475 547 33,000  Level Denver Center
10:34AM 38.0086 -109.1736 70° East 477 549 33,000  Level Denver Center
10:35AM 38.0572 -109.0031 70° East 482 555 33,000  Level Denver Center
10:37AM 38.1017 -108.8492 70° East 485 558 33,000  Level Denver Center
10:38AM 38.1597 -108.6433 70° East 487 560 33,000  Level Denver Center
10:39AM 38.2117 -108.4608 70° East 492 566 33,000  Level Denver Center
10:40AM 38.2564 -108.3031 70° East 496 571 33,000  Level Denver Center
10:41AM 38.3069 -108.1167 71° East 499 574 33,000  Level Denver Center
10:42AM 38.3522 -107.9567 70° East 502 578 33,000  Level Denver Center
10:43AM 38.4042 -107.7700 70° East 502 578 33,000  Level Denver Center
10:44AM 38.4486 -107.6078 71° East 504 580 33,000  Level Denver Center
10:45AM 38.5256 -107.4311 61° Northeast 514 592 33,000 -60 Level Denver Center
10:46AM 38.5931 -107.2814 60° Northeast 510 587 32,900 -540 Descending Denver Center
10:47AM 38.6592 -107.1322 60° Northeast 513 590 31,900 -1,020 Descending Denver Center
10:48AM 38.7294 -106.9742 60° Northeast 513 590 30,900 -1,080 Descending Denver Center
10:49AM 38.8111 -106.7861 61° Northeast 507 583 29,700 -960 Descending Denver Center
10:50AM 38.8803 -106.6300 60° Northeast 507 583 28,900 -720 Descending Denver Center
10:51AM 38.9500 -106.4792 59° Northeast 507 583 28,200 -900 Descending Denver Center
10:52AM 39.0314 -106.3050 59° Northeast 509 586 27,100 -1,320 Descending Denver Center
10:53AM 39.0847 -106.1869 60° Northeast 488 562 25,600 -1,800 Descending Denver Center
10:54AM 39.1608 -106.0119 61° Northeast 448 516 23,500 -1,800 Descending Denver Center
10:55AM 39.2219 -105.8758 60° Northeast 438 504 21,900 -1,500 Descending Denver Center
10:56AM 39.2803 -105.7447 60° Northeast 421 484 20,400 -1,380 Descending Denver Center
10:57AM 39.3261 -105.6378 61° Northeast 409 471 19,100 -1,260 Descending Denver Center
10:58AM 39.3878 -105.4961 61° Northeast 388 447 17,900 -1,380 Descending Denver Center
10:59AM 39.4019 -105.3489 83° East 364 419 16,300 -1,500 Descending Denver Center
11:01AM 39.4072 -105.2075 87° East 362 417 14,800 -1,320 Descending Denver Center
11:02AM 39.4125 -105.0822 87° East 349 402 13,600 -840 Descending Denver Center
11:03AM 39.4178 -104.9611 87° East 316 364 13,100 -540 Descending Denver Center
11:04AM 39.4256 -104.8567 84° East 301 346 12,500 -960 Descending Denver Center
11:05AM 39.4694 -104.7778 54° Northeast 263 303 11,200 -1,200 Descending Denver Center
11:06AM 39.5314 -104.7356 28° Northeast 253 291 10,100 -1,080 Descending Denver Center
11:07AM 39.5964 -104.6936 26° Northeast 240 276 9,000 -900 Descending Denver Center
11:08AM 39.6400 -104.6678 25° Northeast 226 260 8,300 -780 Descending Denver Center
11:09AM 39.7092 -104.6628 North 202 232 7,500 -780 Descending Denver Center